createdAt,value
2023-05-21T11:47:12.570Z,66.13
2023-05-21T11:49:40.596Z,65.51
2023-05-21T11:52:10.117Z,66.19
2023-05-21T11:54:41.562Z,65.51
2023-05-21T11:57:09.625Z,64.76
2023-05-21T11:59:37.567Z,66.05
2023-05-21T12:02:05.916Z,66.94
2023-05-21T12:04:36.509Z,64.69
2023-05-21T12:07:05.107Z,63.80
2023-05-21T12:11:21.766Z,64.10
2023-05-21T12:13:50.912Z,63.99
2023-05-21T12:17:02.916Z,64.62
2023-05-21T12:19:33.701Z,63.67
2023-05-21T12:22:03.181Z,64.23
2023-05-21T12:24:31.044Z,63.51
2023-05-21T12:27:01.079Z,63.74
2023-05-21T12:29:29.282Z,63.93
2023-05-21T12:32:02.041Z,64.63
2023-05-21T12:34:44.466Z,64.04
2023-05-21T12:37:13.256Z,63.84
2023-05-21T12:39:42.283Z,65.23
2023-05-21T12:42:10.318Z,63.59
2023-05-21T12:44:40.032Z,63.07
2023-05-21T12:47:09.212Z,63.08
2023-05-21T12:49:38.463Z,63.51
2023-05-21T12:52:07.299Z,63.30
2023-05-21T12:54:36.682Z,62.85
2023-05-21T12:57:09.203Z,63.06
2023-05-21T12:59:53.486Z,62.48
2023-05-21T13:03:01.828Z,61.80
2023-05-21T13:07:55.164Z,61.32
2023-05-21T13:12:19.226Z,61.98
2023-05-21T13:14:46.912Z,62.25
2023-05-21T13:17:14.724Z,63.12
2023-05-21T13:19:42.432Z,63.32
2023-05-21T13:22:11.439Z,62.43
2023-05-21T13:24:39.837Z,61.50
2023-05-21T13:27:08.024Z,61.25
2023-05-21T13:29:38.145Z,61.29
2023-05-21T13:32:06.688Z,61.18
2023-05-21T13:34:34.481Z,61.08
2023-05-21T13:37:02.185Z,60.44
2023-05-21T13:39:29.842Z,59.75
2023-05-21T13:41:57.524Z,59.50
2023-05-21T13:44:25.222Z,60.16
2023-05-21T13:46:54.381Z,59.12
2023-05-21T13:49:22.196Z,59.30
2023-05-21T13:51:49.882Z,60.33
2023-05-21T13:54:17.749Z,59.42
2023-05-21T13:56:45.502Z,60.09
2023-05-21T13:59:13.222Z,59.98
2023-05-21T14:01:40.958Z,59.06
2023-05-21T14:04:10.293Z,59.35
2023-05-21T14:06:38.243Z,59.55
2023-05-21T14:09:06.014Z,58.16
2023-05-21T14:11:33.715Z,58.17
2023-05-21T14:14:01.377Z,58.86
2023-05-21T14:16:29.083Z,60.54
2023-05-21T14:18:57.304Z,57.89
2023-05-21T14:21:42.916Z,57.79
2023-05-21T14:24:10.970Z,57.66
2023-05-21T14:29:11.040Z,58.79
2023-05-21T14:31:39.686Z,57.63
2023-05-21T14:34:08.739Z,58.12
2023-05-21T14:36:36.767Z,58.02
2023-05-21T14:39:04.708Z,58.92
2023-05-21T14:41:32.406Z,58.53
2023-05-21T14:44:00.138Z,58.45
2023-05-21T14:46:29.312Z,58.03
2023-05-21T14:48:59.220Z,58.54
2023-05-21T14:51:27.050Z,57.63
2023-05-21T14:53:55.720Z,57.69
2023-05-21T14:56:26.257Z,58.09
2023-05-21T14:58:54.195Z,57.51
2023-05-21T15:01:22.033Z,57.87
2023-05-21T15:03:51.489Z,57.93
2023-05-21T15:06:19.451Z,58.91
2023-05-21T15:08:47.177Z,56.91
2023-05-21T15:11:14.848Z,57.12
2023-05-21T15:23:17.162Z,55.93
2023-05-21T15:25:45.786Z,56.37
2023-05-21T15:32:11.681Z,55.05
2023-05-21T15:34:39.512Z,54.76
2023-05-21T15:37:07.553Z,55.37
2023-05-21T15:39:35.375Z,54.96
2023-05-21T15:42:03.157Z,55.17
2023-05-21T15:44:30.852Z,54.72
2023-05-21T15:46:58.743Z,54.92
2023-05-21T15:49:27.993Z,55.72
2023-05-21T15:51:57.894Z,55.33
2023-05-21T15:54:25.664Z,55.64
2023-05-21T15:56:53.305Z,54.40
2023-05-21T15:59:21.202Z,54.74
2023-05-21T16:01:49.166Z,55.63
2023-05-21T16:04:17.615Z,54.97
2023-05-21T16:06:47.526Z,55.20
2023-05-21T16:09:15.466Z,55.93
2023-05-21T16:11:44.711Z,56.67
2023-05-21T16:28:52.572Z,59.07
2023-05-21T16:31:20.461Z,59.12
2023-05-21T16:33:48.184Z,59.79
2023-05-21T16:36:55.987Z,60.37
2023-05-21T16:40:41.320Z,60.31
2023-05-21T16:43:09.384Z,60.22
2023-05-21T16:45:40.551Z,59.85
2023-05-21T16:50:32.143Z,60.62
2023-05-21T16:53:02.363Z,60.32
2023-05-21T16:55:30.201Z,60.59
2023-05-21T16:57:57.926Z,60.99
2023-05-21T17:00:26.167Z,61.35
2023-05-21T17:02:54.123Z,61.52
2023-05-21T17:05:22.270Z,62.00
2023-05-21T17:07:51.411Z,61.93
2023-05-21T17:10:20.215Z,61.86
2023-05-21T17:15:42.988Z,62.05
2023-05-21T17:18:11.579Z,62.93
2023-05-21T17:20:39.674Z,62.95
2023-05-21T17:23:07.418Z,63.01
2023-05-21T17:25:35.150Z,62.79
2023-05-21T17:28:02.859Z,62.96
2023-05-21T17:30:30.605Z,63.12
2023-05-21T17:33:01.868Z,63.38
2023-05-21T17:35:29.785Z,63.75
2023-05-21T17:37:57.617Z,63.67
2023-05-21T17:40:25.350Z,63.82
2023-05-21T17:42:53.211Z,63.75
2023-05-21T17:45:21.297Z,64.09
2023-05-21T17:47:49.224Z,63.85
2023-05-21T17:50:18.478Z,63.69
2023-05-21T17:52:46.264Z,63.69
2023-05-21T17:55:14.409Z,63.93
2023-05-21T17:57:42.182Z,63.79
2023-05-21T18:00:10.934Z,64.03
2023-05-21T18:02:38.831Z,64.64
2023-05-21T18:05:06.941Z,64.81
2023-05-21T18:07:36.142Z,64.93
2023-05-21T18:10:03.951Z,64.68
2023-05-21T18:12:31.617Z,64.50
2023-05-21T18:14:59.391Z,64.60
2023-05-21T18:17:27.116Z,64.95
2023-05-21T18:21:52.579Z,64.83
2023-05-21T18:24:20.344Z,65.48
2023-05-21T18:26:48.077Z,65.30
2023-05-21T18:29:15.817Z,65.11
2023-05-21T18:31:44.884Z,64.64
2023-05-21T18:34:12.705Z,64.21
2023-05-21T18:36:40.697Z,63.93
2023-05-21T18:39:10.603Z,64.18
2023-05-21T18:41:39.694Z,63.86
2023-05-21T18:44:07.410Z,63.69
2023-05-21T18:46:35.140Z,63.89
2023-05-21T18:51:31.537Z,63.84
2023-05-21T18:53:59.264Z,63.98
2023-05-21T18:56:28.441Z,63.51
2023-05-21T18:58:56.186Z,63.97
2023-05-21T19:01:23.978Z,64.23
2023-05-21T19:03:51.765Z,64.01
2023-05-21T19:06:25.024Z,64.28
2023-05-21T19:08:52.882Z,63.94
2023-05-21T19:11:23.505Z,63.86
2023-05-21T19:13:53.167Z,64.09
2023-05-21T19:16:21.348Z,64.16
2023-05-21T19:18:49.342Z,64.04
2023-05-21T19:21:17.292Z,64.21
2023-05-21T19:23:52.511Z,64.21
2023-05-21T19:26:21.598Z,64.34
2023-05-21T19:28:53.011Z,63.97
2023-05-21T19:31:23.284Z,64.60
2023-05-21T19:33:51.480Z,64.52
2023-05-21T19:36:19.760Z,65.06
2023-05-21T19:38:48.755Z,65.67
2023-05-21T19:41:16.768Z,65.27
2023-05-21T19:43:44.709Z,65.87
2023-05-21T19:46:12.724Z,65.84
2023-05-21T19:48:41.955Z,65.22
2023-05-21T19:51:09.764Z,64.92
2023-05-21T19:53:37.816Z,65.21
2023-05-21T19:56:05.595Z,65.36
2023-05-21T19:58:33.462Z,65.71
2023-05-21T20:01:01.571Z,65.34
2023-05-21T20:03:35.566Z,65.46
2023-05-21T20:06:05.184Z,65.85
2023-05-21T20:08:33.027Z,65.82
2023-05-21T20:11:00.854Z,65.97
2023-05-21T20:13:28.709Z,65.99
2023-05-21T20:15:56.468Z,66.00
2023-05-21T20:18:25.025Z,66.50
2023-05-21T20:20:53.038Z,66.65
2023-05-21T20:23:22.199Z,66.88
2023-05-21T20:25:50.127Z,67.30
2023-05-21T20:28:19.390Z,67.29
2023-05-21T20:30:57.483Z,68.06
2023-05-21T20:33:25.784Z,68.40
2023-05-21T20:35:53.553Z,68.39
2023-05-21T20:38:25.652Z,68.87
2023-05-21T20:40:53.454Z,69.54
2023-05-21T20:43:21.713Z,69.88
2023-05-21T20:45:50.032Z,69.89
2023-05-21T20:48:18.358Z,70.26
2023-05-21T20:50:46.302Z,70.78
2023-05-21T20:53:15.882Z,71.08
2023-05-21T20:55:46.935Z,71.28
2023-05-21T20:58:14.676Z,71.33
2023-05-21T21:00:44.936Z,71.31
2023-05-21T21:03:12.772Z,71.61
2023-05-21T21:05:40.652Z,71.99
2023-05-21T21:08:08.438Z,72.25
2023-05-21T21:10:36.404Z,72.22
2023-05-21T21:13:07.133Z,72.20
2023-05-21T21:15:34.883Z,72.39
2023-05-21T21:18:02.650Z,72.48
2023-05-21T21:20:30.429Z,72.86
2023-05-21T21:22:58.221Z,72.58
2023-05-21T21:25:25.932Z,72.47
2023-05-21T21:27:53.691Z,72.92
2023-05-21T21:30:22.843Z,72.71
2023-05-21T21:32:50.678Z,73.12
2023-05-21T21:35:18.558Z,73.01
2023-05-21T21:37:46.354Z,73.17
2023-05-21T21:40:15.098Z,73.28
2023-05-21T21:42:43.310Z,73.26
2023-05-21T21:45:12.282Z,73.63
2023-05-21T21:47:41.560Z,73.72
2023-05-21T21:50:09.992Z,73.45
2023-05-21T21:52:40.062Z,73.70
2023-05-21T21:55:09.918Z,73.39
2023-05-21T21:57:39.331Z,73.39
2023-05-21T22:00:11.484Z,72.70
2023-05-21T22:02:40.182Z,72.61
2023-05-21T22:05:09.932Z,72.49
2023-05-21T22:07:38.722Z,72.12
2023-05-21T22:10:07.465Z,71.71
2023-05-21T22:12:35.242Z,70.63
2023-05-21T22:15:05.316Z,71.42
2023-05-21T22:17:34.524Z,71.00
2023-05-21T22:20:02.422Z,70.47
2023-05-21T22:22:31.792Z,70.74
2023-05-21T22:24:59.491Z,70.17
2023-05-21T22:27:27.406Z,70.14
2023-05-21T22:29:55.178Z,71.07
2023-05-21T22:32:22.924Z,71.12
2023-05-21T22:34:50.719Z,71.69
2023-05-21T22:37:19.068Z,71.39
2023-05-21T22:39:48.258Z,72.08
2023-05-21T22:42:16.018Z,72.04
2023-05-21T22:44:43.815Z,72.34
2023-05-21T22:47:11.528Z,72.35
2023-05-21T22:49:40.593Z,71.62
2023-05-21T22:52:09.356Z,71.44
2023-05-21T22:54:37.345Z,72.13
2023-05-21T22:57:06.848Z,72.04
2023-05-21T22:59:34.561Z,72.71
2023-05-21T23:02:02.435Z,73.09
2023-05-21T23:04:43.193Z,72.08
2023-05-21T23:07:12.006Z,72.54
2023-05-21T23:09:39.724Z,72.73
2023-05-21T23:12:10.698Z,72.83
2023-05-21T23:14:38.532Z,72.54
2023-05-21T23:17:07.500Z,72.30
2023-05-21T23:19:35.480Z,72.49
2023-05-21T23:22:03.427Z,72.71
2023-05-21T23:24:31.220Z,73.04
2023-05-21T23:27:02.769Z,72.91
2023-05-21T23:29:31.934Z,72.69
2023-05-21T23:32:00.902Z,72.94
2023-05-21T23:34:28.817Z,73.43
2023-05-21T23:36:58.738Z,73.23
2023-05-21T23:39:28.489Z,73.28
2023-05-21T23:41:56.399Z,73.07
2023-05-21T23:44:24.123Z,73.35
2023-05-21T23:46:53.332Z,73.61
2023-05-21T23:49:21.034Z,73.93
2023-05-21T23:51:50.590Z,73.82
2023-05-21T23:54:18.621Z,74.01
2023-05-21T23:56:46.497Z,74.04
2023-05-21T23:59:16.161Z,73.72
